createdAt,value
2018-07-31T00:01:01.377Z,9.80
2018-07-31T00:03:31.797Z,6.67
2018-07-31T00:06:01.697Z,6.13
2018-07-31T00:08:31.584Z,4.63
2018-07-31T00:11:01.347Z,6.50
2018-07-31T00:13:31.211Z,9.93
2018-07-31T00:16:01.120Z,12.97
2018-07-31T00:18:31.227Z,10.10
2018-07-31T00:21:01.114Z,8.93
2018-07-31T00:23:31.140Z,5.63
2018-07-31T00:26:01.541Z,7.37
2018-07-31T00:28:31.484Z,8.27
2018-07-31T00:31:01.541Z,5.60
2018-07-31T00:33:31.583Z,8.80
2018-07-31T00:36:01.720Z,8.57
2018-07-31T00:38:31.675Z,12.97
2018-07-31T00:41:01.573Z,14.00
2018-07-31T00:43:31.469Z,10.27
2018-07-31T00:46:01.282Z,9.63
2018-07-31T00:48:31.464Z,7.73
2018-07-31T00:51:01.362Z,7.43
2018-07-31T00:53:31.231Z,9.40
2018-07-31T00:56:01.123Z,6.93
2018-07-31T00:58:31.244Z,10.43
2018-07-31T01:01:01.338Z,8.07
2018-07-31T01:03:31.440Z,11.90
2018-07-31T01:06:02.230Z,8.23
2018-07-31T01:08:32.061Z,9.50
2018-07-31T01:11:02.184Z,8.27
2018-07-31T01:13:31.785Z,12.73
2018-07-31T01:16:01.683Z,12.60
2018-07-31T01:18:31.546Z,10.17
2018-07-31T01:21:03.327Z,10.57
2018-07-31T01:23:33.242Z,10.03
2018-07-31T01:26:03.302Z,9.73
2018-07-31T01:28:33.296Z,9.40
2018-07-31T01:31:03.361Z,7.37
2018-07-31T01:33:34.152Z,13.83
2018-07-31T01:36:03.944Z,8.23
2018-07-31T01:38:33.905Z,8.80
2018-07-31T01:41:03.896Z,7.53
2018-07-31T01:43:33.740Z,9.37
2018-07-31T01:46:03.726Z,9.03
2018-07-31T01:48:33.929Z,13.87
2018-07-31T01:51:03.816Z,7.63
2018-07-31T01:53:33.905Z,9.90
2018-07-31T01:56:03.828Z,7.90
2018-07-31T01:58:34.114Z,9.73
2018-07-31T02:01:03.796Z,10.53
2018-07-31T02:03:33.925Z,11.67
2018-07-31T02:06:04.056Z,16.00
2018-07-31T02:08:33.611Z,13.63
2018-07-31T02:11:03.564Z,11.33
2018-07-31T02:13:33.439Z,20.10
2018-07-31T02:16:03.428Z,12.33
2018-07-31T02:18:32.935Z,12.23
2018-07-31T02:21:02.397Z,9.30
2018-07-31T02:23:32.356Z,11.57
2018-07-31T02:26:02.337Z,10.73
2018-07-31T02:28:32.334Z,9.13
2018-07-31T02:31:02.769Z,13.57
2018-07-31T02:33:32.876Z,10.87
2018-07-31T02:36:02.769Z,12.27
2018-07-31T02:38:32.981Z,9.97
2018-07-31T02:41:02.888Z,9.70
2018-07-31T02:43:32.605Z,8.33
2018-07-31T02:46:02.623Z,9.87
2018-07-31T02:48:32.829Z,8.90
2018-07-31T02:51:02.680Z,8.13
2018-07-31T02:53:32.457Z,10.00
2018-07-31T02:56:02.579Z,12.77
2018-07-31T02:58:32.480Z,8.93
2018-07-31T03:01:02.728Z,9.70
2018-07-31T03:03:33.038Z,10.27
2018-07-31T03:06:02.957Z,9.13
2018-07-31T03:08:32.456Z,8.47
2018-07-31T03:11:02.032Z,10.67
2018-07-31T03:13:31.878Z,11.17
2018-07-31T03:16:01.400Z,10.37
2018-07-31T03:18:31.285Z,9.90
2018-07-31T03:21:00.993Z,13.10
2018-07-31T03:23:30.794Z,11.13
2018-07-31T03:26:00.793Z,10.33
2018-07-31T03:28:30.899Z,9.93
2018-07-31T03:31:00.999Z,8.57
2018-07-31T03:33:30.932Z,12.17
2018-07-31T03:36:00.892Z,10.80
2018-07-31T03:38:30.937Z,11.53
2018-07-31T03:41:00.936Z,9.73
2018-07-31T03:43:30.993Z,12.23
2018-07-31T03:46:00.784Z,9.93
2018-07-31T03:48:30.198Z,9.23
2018-07-31T03:51:00.251Z,12.97
2018-07-31T03:53:30.070Z,8.53
2018-07-31T03:56:00.018Z,9.23
2018-07-31T03:58:30.043Z,8.37
2018-07-31T04:00:59.905Z,10.63
2018-07-31T04:03:29.835Z,9.83
2018-07-31T04:05:59.513Z,9.30
2018-07-31T04:08:29.442Z,11.07
2018-07-31T04:10:59.983Z,10.67
2018-07-31T04:13:29.845Z,10.87
2018-07-31T04:15:59.983Z,11.90
2018-07-31T04:18:29.813Z,11.97
2018-07-31T04:20:59.945Z,10.17
2018-07-31T04:23:29.784Z,12.97
2018-07-31T04:25:59.734Z,10.67
2018-07-31T04:28:29.168Z,8.20
2018-07-31T04:30:59.161Z,15.73
2018-07-31T04:33:29.081Z,10.33
2018-07-31T04:35:58.554Z,13.33
2018-07-31T04:38:28.509Z,8.20
2018-07-31T04:40:58.792Z,14.13
2018-07-31T04:43:28.711Z,11.63
2018-07-31T04:45:59.057Z,11.97
2018-07-31T04:48:28.801Z,11.07
2018-07-31T04:50:59.036Z,9.47
2018-07-31T04:53:28.846Z,10.30
2018-07-31T04:55:58.709Z,10.43
2018-07-31T04:58:28.738Z,7.73
2018-07-31T05:00:58.598Z,8.87
2018-07-31T05:03:28.479Z,9.83
2018-07-31T05:05:58.332Z,10.13
2018-07-31T05:08:30.351Z,12.37
2018-07-31T05:11:00.560Z,13.87
2018-07-31T05:13:30.772Z,13.77
2018-07-31T05:16:00.694Z,10.80
2018-07-31T05:18:30.621Z,12.13
2018-07-31T05:21:02.494Z,11.70
2018-07-31T05:23:34.267Z,14.23
2018-07-31T05:26:04.379Z,9.93
2018-07-31T05:28:40.181Z,13.07
2018-07-31T05:31:10.821Z,12.57
2018-07-31T05:33:40.652Z,13.23
2018-07-31T05:36:10.948Z,14.87
2018-07-31T05:38:41.108Z,10.77
2018-07-31T05:41:18.772Z,10.60
2018-07-31T05:43:48.755Z,11.30
2018-07-31T05:46:19.950Z,8.90
2018-07-31T05:48:50.070Z,9.70
2018-07-31T05:51:25.400Z,13.03
2018-07-31T05:53:55.164Z,11.00
2018-07-31T05:56:30.723Z,17.00
2018-07-31T05:59:02.793Z,11.97
2018-07-31T06:01:38.707Z,12.43
2018-07-31T06:04:10.771Z,13.77
2018-07-31T06:06:40.404Z,14.10
2018-07-31T06:09:10.738Z,11.80
2018-07-31T06:11:41.471Z,16.30
2018-07-31T06:14:11.305Z,18.70
2018-07-31T06:16:44.069Z,10.33
2018-07-31T06:19:14.138Z,13.17
2018-07-31T06:21:52.700Z,12.10
2018-07-31T06:24:22.604Z,12.80
2018-07-31T06:26:53.723Z,13.83
2018-07-31T06:29:25.597Z,13.03
2018-07-31T06:31:55.516Z,9.63
2018-07-31T06:34:25.356Z,13.00
2018-07-31T06:36:56.770Z,13.27
2018-07-31T06:39:28.038Z,13.57
2018-07-31T06:41:57.849Z,10.03
2018-07-31T06:44:30.006Z,11.37
2018-07-31T06:46:59.531Z,10.70
2018-07-31T06:49:29.561Z,8.37
2018-07-31T06:51:59.613Z,14.90
2018-07-31T06:54:29.584Z,14.37
2018-07-31T06:56:59.447Z,8.70
2018-07-31T06:59:29.483Z,12.07
2018-07-31T07:01:59.869Z,14.23
2018-07-31T07:04:29.847Z,12.60
2018-07-31T07:06:59.562Z,14.07
2018-07-31T07:09:29.610Z,12.50
2018-07-31T07:11:59.596Z,10.20
2018-07-31T07:14:29.588Z,10.70
2018-07-31T07:16:59.973Z,9.53
2018-07-31T07:19:29.885Z,12.03
2018-07-31T07:21:59.713Z,13.97
2018-07-31T07:24:29.919Z,8.43
2018-07-31T07:27:00.137Z,10.10
2018-07-31T07:29:30.231Z,9.80
2018-07-31T07:31:59.690Z,17.23
2018-07-31T07:34:29.544Z,12.67
2018-07-31T07:36:59.489Z,11.40
2018-07-31T07:39:30.120Z,16.47
2018-07-31T07:42:00.158Z,11.70
2018-07-31T07:44:30.499Z,13.80
2018-07-31T07:47:00.945Z,12.20
2018-07-31T07:49:31.149Z,11.23
2018-07-31T07:52:00.988Z,9.90
2018-07-31T07:54:30.973Z,8.63
2018-07-31T07:57:00.933Z,11.47
2018-07-31T07:59:30.454Z,10.03
2018-07-31T08:02:00.320Z,9.97
2018-07-31T08:04:30.113Z,11.90
2018-07-31T08:07:00.098Z,11.40
2018-07-31T08:09:29.975Z,12.47
2018-07-31T08:12:00.332Z,10.97
2018-07-31T08:14:30.216Z,14.37
2018-07-31T08:17:00.278Z,11.90
2018-07-31T08:19:30.516Z,12.63
2018-07-31T08:22:00.389Z,13.47
2018-07-31T08:24:30.157Z,15.00
2018-07-31T08:27:00.107Z,14.07
2018-07-31T08:29:29.895Z,13.97
2018-07-31T08:31:59.743Z,13.67
2018-07-31T08:34:29.507Z,11.00
2018-07-31T08:36:59.632Z,16.23
2018-07-31T08:39:29.664Z,14.10
2018-07-31T08:41:59.460Z,9.07
2018-07-31T08:44:29.468Z,16.83
2018-07-31T08:46:59.183Z,13.37
2018-07-31T08:49:29.030Z,13.53
2018-07-31T08:51:58.955Z,16.93
2018-07-31T08:54:28.819Z,14.27
2018-07-31T08:56:58.756Z,14.80
2018-07-31T08:59:29.331Z,11.80
2018-07-31T09:01:58.842Z,20.33
2018-07-31T09:04:28.399Z,12.00
2018-07-31T09:06:58.204Z,19.50
2018-07-31T09:09:27.896Z,17.03
2018-07-31T09:11:58.078Z,14.77
2018-07-31T09:14:28.212Z,11.83
2018-07-31T09:16:57.848Z,13.80
2018-07-31T09:19:28.006Z,18.73
2018-07-31T09:21:58.075Z,19.70
2018-07-31T09:24:28.458Z,14.87
2018-07-31T09:26:58.506Z,19.80
2018-07-31T09:29:28.421Z,17.87
2018-07-31T09:31:58.381Z,18.30
2018-07-31T09:34:28.636Z,12.63
2018-07-31T09:36:58.706Z,14.63
2018-07-31T09:39:28.327Z,10.53
2018-07-31T09:41:58.227Z,5.80
2018-07-31T09:44:28.067Z,5.73
2018-07-31T09:46:58.165Z,6.20
2018-07-31T09:49:28.470Z,7.60
2018-07-31T09:51:58.491Z,10.25
2018-07-31T09:54:28.398Z,9.40
2018-07-31T09:56:58.427Z,6.87
2018-07-31T09:59:28.581Z,9.87
2018-07-31T10:01:58.597Z,9.43
2018-07-31T10:04:28.854Z,9.40
2018-07-31T10:06:58.732Z,7.63
2018-07-31T10:09:28.861Z,11.57
2018-07-31T10:12:05.980Z,8.15
2018-07-31T10:14:36.437Z,7.00
2018-07-31T10:17:07.321Z,6.87
2018-07-31T10:19:37.707Z,7.63
2018-07-31T10:22:08.309Z,9.20
2018-07-31T10:24:38.220Z,10.53
2018-07-31T10:27:08.505Z,6.13
2018-07-31T10:29:38.522Z,13.22
2018-07-31T10:32:09.219Z,11.25
2018-07-31T10:34:39.292Z,7.40
2018-07-31T10:37:09.788Z,6.97
2018-07-31T10:39:40.341Z,6.78
2018-07-31T10:42:10.570Z,7.85
2018-07-31T10:44:40.489Z,5.75
2018-07-31T10:47:10.449Z,4.97
2018-07-31T10:49:41.152Z,8.03
2018-07-31T10:52:12.390Z,6.17
2018-07-31T10:54:42.491Z,6.60
2018-07-31T10:57:12.379Z,4.27
2018-07-31T10:59:42.426Z,3.72
2018-07-31T11:02:12.625Z,7.00
2018-07-31T11:04:42.564Z,24.67
2018-07-31T11:07:12.483Z,8.17
2018-07-31T11:09:42.438Z,5.37
2018-07-31T11:12:12.088Z,5.40
2018-07-31T11:14:41.993Z,6.85
2018-07-31T11:17:12.028Z,4.67
2018-07-31T11:19:42.241Z,6.12
2018-07-31T11:22:12.250Z,5.50
2018-07-31T11:24:43.679Z,5.17
2018-07-31T11:27:14.231Z,6.97
2018-07-31T11:29:44.231Z,5.58
2018-07-31T11:32:13.922Z,6.40
2018-07-31T11:34:44.130Z,8.23
2018-07-31T11:37:14.312Z,4.00
2018-07-31T11:39:44.147Z,4.87
2018-07-31T11:42:14.166Z,4.90
2018-07-31T11:44:44.385Z,6.75
2018-07-31T11:47:14.440Z,3.97
2018-07-31T11:49:44.523Z,5.08
2018-07-31T11:52:15.832Z,6.97
2018-07-31T11:54:45.849Z,5.17
2018-07-31T11:57:15.799Z,4.75
2018-07-31T11:59:45.689Z,6.03
2018-07-31T12:02:15.917Z,6.75
2018-07-31T12:04:45.592Z,4.05
2018-07-31T12:07:15.581Z,4.58
2018-07-31T12:09:45.567Z,3.77
2018-07-31T12:12:15.440Z,10.60
2018-07-31T12:14:45.236Z,10.27
2018-07-31T12:17:15.327Z,6.62
2018-07-31T12:19:44.971Z,4.40
2018-07-31T12:22:14.991Z,7.62
2018-07-31T12:24:45.223Z,5.87
2018-07-31T12:27:15.331Z,5.15
2018-07-31T12:29:45.208Z,8.40
2018-07-31T12:32:15.246Z,8.88
2018-07-31T12:34:45.187Z,5.83
2018-07-31T12:37:15.659Z,7.28
2018-07-31T12:39:45.958Z,4.78
2018-07-31T12:42:15.690Z,3.07
2018-07-31T12:44:45.647Z,4.27
2018-07-31T12:47:16.482Z,4.87
2018-07-31T12:49:46.487Z,8.65
2018-07-31T12:52:17.001Z,6.42
2018-07-31T12:54:47.076Z,5.85
2018-07-31T12:57:17.309Z,5.03
2018-07-31T12:59:46.882Z,6.97
2018-07-31T13:02:17.143Z,4.67
2018-07-31T13:04:47.007Z,2.95
2018-07-31T13:07:18.423Z,4.50
2018-07-31T13:09:49.635Z,6.90
2018-07-31T13:12:21.445Z,5.17
2018-07-31T13:14:51.649Z,8.70
2018-07-31T13:17:24.121Z,4.10
2018-07-31T13:19:54.038Z,3.37
2018-07-31T13:22:24.036Z,3.30
2018-07-31T13:24:53.959Z,4.50
2018-07-31T13:27:23.902Z,4.90
2018-07-31T13:29:53.903Z,4.57
2018-07-31T13:32:23.768Z,6.87
2018-07-31T13:34:54.121Z,8.37
2018-07-31T13:37:24.422Z,5.15
2018-07-31T13:39:54.693Z,4.80
2018-07-31T13:42:24.633Z,3.47
2018-07-31T13:44:55.021Z,3.95
2018-07-31T13:47:25.071Z,4.17
2018-07-31T13:49:57.095Z,2.72
2018-07-31T13:52:27.765Z,7.10
2018-07-31T13:54:57.787Z,4.60
2018-07-31T13:57:27.729Z,5.22
2018-07-31T13:59:57.842Z,8.13
2018-07-31T14:02:27.768Z,8.33
2018-07-31T14:04:57.598Z,2.87
2018-07-31T14:07:27.761Z,4.55
2018-07-31T14:09:57.575Z,4.37
2018-07-31T14:12:28.976Z,7.00
2018-07-31T14:14:59.864Z,3.27
2018-07-31T14:17:30.217Z,4.45
2018-07-31T14:20:00.046Z,3.75
2018-07-31T14:22:29.745Z,7.05
2018-07-31T14:24:59.862Z,4.53
2018-07-31T14:27:30.055Z,5.78
2018-07-31T14:30:00.833Z,3.05
2018-07-31T14:32:30.708Z,4.40
2018-07-31T14:35:00.492Z,4.37
2018-07-31T14:37:30.215Z,3.58
2018-07-31T14:40:02.718Z,4.50
2018-07-31T14:42:33.045Z,1.77
2018-07-31T14:45:04.239Z,2.15
2018-07-31T14:47:34.102Z,3.45
2018-07-31T14:50:04.088Z,2.40
2018-07-31T14:52:34.101Z,6.30
2018-07-31T14:55:04.056Z,5.87
2018-07-31T14:57:34.475Z,1.52
2018-07-31T15:00:07.551Z,3.95
2018-07-31T15:02:37.450Z,3.60
2018-07-31T15:05:07.172Z,2.72
2018-07-31T15:07:37.348Z,5.30
2018-07-31T15:10:08.292Z,1.57
2018-07-31T15:12:39.608Z,2.65
2018-07-31T15:15:09.600Z,2.33
2018-07-31T15:17:39.974Z,2.85
2018-07-31T15:20:12.382Z,3.05
2018-07-31T15:22:43.482Z,2.87
2018-07-31T15:25:13.473Z,3.15
2018-07-31T15:27:44.594Z,4.75
2018-07-31T15:30:15.865Z,4.22
2018-07-31T15:32:47.159Z,4.67
2018-07-31T15:35:16.933Z,2.20
2018-07-31T15:37:48.812Z,3.37
2018-07-31T15:40:19.706Z,6.55
2018-07-31T15:42:51.259Z,5.40
2018-07-31T15:45:22.367Z,5.90
2018-07-31T15:47:52.796Z,3.27
2018-07-31T15:50:23.052Z,2.20
2018-07-31T15:52:52.984Z,3.52
2018-07-31T15:55:22.931Z,2.47
2018-07-31T15:57:52.899Z,3.58
2018-07-31T16:00:22.592Z,3.87
2018-07-31T16:02:52.575Z,6.63
2018-07-31T16:05:22.868Z,8.30
2018-07-31T16:07:52.758Z,2.87
2018-07-31T16:10:22.204Z,4.80
2018-07-31T16:12:52.375Z,9.37
2018-07-31T16:15:22.333Z,4.40
2018-07-31T16:17:52.529Z,3.47
2018-07-31T16:20:24.585Z,3.80
2018-07-31T16:22:54.897Z,6.10
2018-07-31T16:25:24.828Z,3.83
2018-07-31T16:27:54.903Z,3.33
2018-07-31T16:30:24.883Z,3.43
2018-07-31T16:32:55.336Z,5.50
2018-07-31T16:35:25.615Z,3.33
2018-07-31T16:37:55.584Z,8.90
2018-07-31T16:40:25.568Z,4.80
2018-07-31T16:42:55.185Z,9.40
2018-07-31T16:45:25.288Z,5.10
2018-07-31T16:47:55.342Z,7.47
2018-07-31T16:50:25.637Z,6.13
2018-07-31T16:52:55.804Z,9.13
2018-07-31T16:55:25.779Z,5.70
2018-07-31T16:57:55.859Z,2.80
2018-07-31T17:00:25.904Z,11.53
2018-07-31T17:02:55.525Z,8.70
2018-07-31T17:05:25.698Z,6.23
2018-07-31T17:07:55.620Z,9.17
2018-07-31T17:10:25.426Z,6.60
2018-07-31T17:12:55.378Z,12.37
2018-07-31T17:15:24.879Z,11.47
2018-07-31T17:17:54.769Z,9.30
2018-07-31T17:20:24.594Z,5.93
2018-07-31T17:22:54.527Z,6.73
2018-07-31T17:25:24.579Z,7.07
2018-07-31T17:27:54.365Z,7.60
2018-07-31T17:30:24.359Z,5.43
2018-07-31T17:32:54.633Z,3.93
2018-07-31T17:35:24.544Z,8.00
2018-07-31T17:37:54.501Z,6.30
2018-07-31T17:40:24.678Z,5.70
2018-07-31T17:42:54.493Z,5.17
2018-07-31T17:45:24.356Z,7.97
2018-07-31T17:47:54.270Z,5.53
2018-07-31T17:50:24.243Z,3.60
2018-07-31T17:52:54.127Z,6.70
2018-07-31T17:55:23.674Z,6.17
2018-07-31T17:57:53.653Z,5.20
2018-07-31T18:00:23.822Z,5.73
2018-07-31T18:02:53.729Z,7.90
2018-07-31T18:05:23.885Z,6.83
2018-07-31T18:07:53.865Z,6.90
2018-07-31T18:10:23.895Z,11.53
2018-07-31T18:12:53.871Z,5.97
2018-07-31T18:15:23.774Z,8.73
2018-07-31T18:17:54.068Z,9.77
2018-07-31T18:20:24.375Z,9.23
2018-07-31T18:22:54.731Z,6.70
2018-07-31T18:25:24.933Z,7.13
2018-07-31T18:27:55.098Z,8.13
2018-07-31T18:30:24.600Z,7.43
2018-07-31T18:32:54.514Z,6.73
2018-07-31T18:35:24.105Z,7.73
2018-07-31T18:37:54.480Z,7.90
2018-07-31T18:40:24.744Z,8.90
2018-07-31T18:42:54.982Z,8.53
2018-07-31T18:45:25.111Z,4.30
2018-07-31T18:47:54.642Z,9.20
2018-07-31T18:50:25.365Z,10.00
2018-07-31T18:52:55.226Z,5.10
2018-07-31T18:55:25.332Z,4.87
2018-07-31T18:57:56.098Z,3.83
2018-07-31T19:00:26.451Z,10.20
2018-07-31T19:02:56.714Z,4.13
2018-07-31T19:05:28.931Z,7.77
2018-07-31T19:07:58.813Z,6.90
2018-07-31T19:10:29.193Z,7.47
2018-07-31T19:12:59.118Z,5.70
2018-07-31T19:15:29.023Z,4.83
2018-07-31T19:17:58.831Z,6.33
2018-07-31T19:20:28.386Z,12.03
2018-07-31T19:22:58.245Z,6.10
2018-07-31T19:25:28.303Z,5.97
2018-07-31T19:27:58.511Z,6.60
2018-07-31T19:30:28.593Z,9.03
2018-07-31T19:32:58.712Z,7.77
2018-07-31T19:35:28.648Z,10.80
2018-07-31T19:37:58.317Z,5.53
2018-07-31T19:40:28.259Z,12.27
2018-07-31T19:42:58.184Z,9.87
2018-07-31T19:45:28.335Z,14.63
2018-07-31T19:47:58.320Z,6.23
2018-07-31T19:50:27.791Z,10.53
2018-07-31T19:52:57.922Z,7.70
2018-07-31T19:55:27.964Z,5.47
2018-07-31T19:57:57.524Z,6.60
2018-07-31T20:00:27.756Z,7.30
2018-07-31T20:02:57.662Z,8.07
2018-07-31T20:05:28.085Z,5.83
2018-07-31T20:07:58.135Z,7.07
2018-07-31T20:10:28.215Z,9.43
2018-07-31T20:12:58.111Z,6.10
2018-07-31T20:15:28.304Z,5.33
2018-07-31T20:17:58.378Z,3.60
2018-07-31T20:20:28.325Z,3.17
2018-07-31T20:22:58.209Z,5.33
2018-07-31T20:25:28.383Z,5.27
2018-07-31T20:27:58.527Z,8.73
2018-07-31T20:30:28.451Z,7.90
2018-07-31T20:32:58.414Z,8.73
2018-07-31T20:35:28.402Z,8.37
2018-07-31T20:37:58.360Z,8.00
2018-07-31T20:40:28.642Z,7.77
2018-07-31T20:42:59.024Z,9.03
2018-07-31T20:45:29.226Z,8.30
2018-07-31T20:47:59.388Z,6.57
2018-07-31T20:50:29.615Z,7.67
2018-07-31T20:52:59.826Z,5.90
2018-07-31T20:55:29.817Z,7.40
2018-07-31T20:57:59.770Z,6.93
2018-07-31T21:00:29.812Z,5.97
2018-07-31T21:02:59.832Z,10.50
2018-07-31T21:05:29.990Z,7.13
2018-07-31T21:08:00.031Z,6.47
2018-07-31T21:10:29.998Z,7.80
2018-07-31T21:13:00.256Z,8.10
2018-07-31T21:15:30.187Z,11.23
2018-07-31T21:18:00.210Z,8.83
2018-07-31T21:20:30.288Z,8.17
2018-07-31T21:23:00.536Z,4.97
2018-07-31T21:25:30.011Z,6.57
2018-07-31T21:28:00.030Z,7.73
2018-07-31T21:30:29.873Z,8.67
2018-07-31T21:32:59.992Z,13.80
2018-07-31T21:35:30.179Z,8.33
2018-07-31T21:38:00.289Z,8.13
2018-07-31T21:40:30.178Z,7.63
2018-07-31T21:43:00.414Z,5.37
2018-07-31T21:45:30.469Z,3.70
2018-07-31T21:48:00.330Z,6.53
2018-07-31T21:50:30.193Z,4.73
2018-07-31T21:53:00.028Z,7.03
2018-07-31T21:55:29.919Z,8.47
2018-07-31T21:58:00.060Z,7.30
2018-07-31T22:00:36.307Z,5.17
2018-07-31T22:03:06.182Z,3.93
2018-07-31T22:05:36.680Z,6.10
2018-07-31T22:08:06.272Z,3.93
2018-07-31T22:10:36.448Z,6.33
2018-07-31T22:13:06.321Z,5.93
2018-07-31T22:15:36.175Z,6.07
2018-07-31T22:18:06.154Z,6.07
2018-07-31T22:20:36.074Z,8.27
2018-07-31T22:23:05.906Z,5.70
2018-07-31T22:25:35.785Z,5.10
2018-07-31T22:28:05.573Z,8.23
2018-07-31T22:30:35.574Z,4.40
2018-07-31T22:33:05.411Z,7.97
2018-07-31T22:35:35.501Z,3.77
2018-07-31T22:38:05.778Z,7.20
2018-07-31T22:40:35.240Z,6.90
2018-07-31T22:43:05.177Z,4.77
2018-07-31T22:45:35.133Z,4.43
2018-07-31T22:48:05.160Z,6.57
2018-07-31T22:50:35.279Z,4.43
2018-07-31T22:53:05.389Z,4.53
2018-07-31T22:55:35.316Z,9.50
2018-07-31T22:58:05.744Z,5.93
2018-07-31T23:00:35.528Z,9.77
2018-07-31T23:03:05.508Z,5.43
2018-07-31T23:05:35.364Z,6.37
2018-07-31T23:08:04.916Z,4.97
2018-07-31T23:10:34.623Z,4.53
2018-07-31T23:13:04.701Z,4.17
2018-07-31T23:15:34.457Z,3.83
2018-07-31T23:18:04.503Z,6.03
2018-07-31T23:20:34.641Z,6.43
2018-07-31T23:23:04.250Z,9.43
2018-07-31T23:25:33.813Z,7.13
2018-07-31T23:28:03.866Z,3.77
2018-07-31T23:30:33.824Z,4.83
2018-07-31T23:33:03.676Z,4.97
2018-07-31T23:35:33.856Z,6.63
2018-07-31T23:38:03.728Z,3.03
2018-07-31T23:40:33.491Z,3.90
2018-07-31T23:43:03.388Z,6.13
2018-07-31T23:45:32.849Z,4.53
2018-07-31T23:48:03.024Z,4.73
2018-07-31T23:50:33.025Z,4.50
2018-07-31T23:53:02.534Z,4.57
2018-07-31T23:55:31.986Z,2.93
2018-07-31T23:58:02.154Z,4.63
